sensor_id;sensor_type;location;lat;lon;timestamp;temperature;humidity
31639;DHT22;18248;51.522;7.020;2023-03-24T00:01:00;12.70;99.90
31639;DHT22;18248;51.522;7.020;2023-03-24T00:03:59;12.70;99.90
31639;DHT22;18248;51.522;7.020;2023-03-24T00:06:58;12.80;99.90
31639;DHT22;18248;51.522;7.020;2023-03-24T00:09:59;12.70;99.90
31639;DHT22;18248;51.522;7.020;2023-03-24T00:12:57;12.70;99.90
31639;DHT22;18248;51.522;7.020;2023-03-24T00:15:57;12.70;99.90
31639;DHT22;18248;51.522;7.020;2023-03-24T00:18:59;12.70;99.90
31639;DHT22;18248;51.522;7.020;2023-03-24T00:21:59;12.70;99.90
31639;DHT22;18248;51.522;7.020;2023-03-24T00:24:58;12.70;99.90
31639;DHT22;18248;51.522;7.020;2023-03-24T00:27:56;12.70;99.90
31639;DHT22;18248;51.522;7.020;2023-03-24T00:30:55;12.80;99.90
31639;DHT22;18248;51.522;7.020;2023-03-24T00:33:53;12.70;99.90
31639;DHT22;18248;51.522;7.020;2023-03-24T00:36:52;12.80;99.90
31639;DHT22;18248;51.522;7.020;2023-03-24T00:39:51;12.80;99.90
31639;DHT22;18248;51.522;7.020;2023-03-24T00:42:49;12.80;99.90
31639;DHT22;18248;51.522;7.020;2023-03-24T00:45:48;12.80;99.90
31639;DHT22;18248;51.522;7.020;2023-03-24T00:48:46;12.80;99.90
31639;DHT22;18248;51.522;7.020;2023-03-24T00:51:48;12.80;99.90
31639;DHT22;18248;51.522;7.020;2023-03-24T00:54:50;12.80;99.90
31639;DHT22;18248;51.522;7.020;2023-03-24T00:57:49;12.80;99.90
31639;DHT22;18248;51.522;7.020;2023-03-24T01:00:53;12.80;99.90
31639;DHT22;18248;51.522;7.020;2023-03-24T01:03:52;12.80;99.90
31639;DHT22;18248;51.522;7.020;2023-03-24T01:06:51;12.80;99.90
31639;DHT22;18248;51.522;7.020;2023-03-24T01:09:56;12.80;99.90
31639;DHT22;18248;51.522;7.020;2023-03-24T01:12:56;12.80;99.90
31639;DHT22;18248;51.522;7.020;2023-03-24T01:15:58;12.80;99.90
31639;DHT22;18248;51.522;7.020;2023-03-24T01:18:57;12.80;99.90
31639;DHT22;18248;51.522;7.020;2023-03-24T01:21:56;12.80;99.90
31639;DHT22;18248;51.522;7.020;2023-03-24T01:24:56;12.80;99.90
31639;DHT22;18248;51.522;7.020;2023-03-24T01:27:55;12.80;99.90
31639;DHT22;18248;51.522;7.020;2023-03-24T01:30:54;12.90;99.90
31639;DHT22;18248;51.522;7.020;2023-03-24T01:33:52;12.90;99.90
31639;DHT22;18248;51.522;7.020;2023-03-24T01:36:51;12.90;99.90
31639;DHT22;18248;51.522;7.020;2023-03-24T01:39:50;12.90;99.90
31639;DHT22;18248;51.522;7.020;2023-03-24T01:42:49;12.90;99.90
31639;DHT22;18248;51.522;7.020;2023-03-24T01:49:15;12.90;99.90
31639;DHT22;18248;51.522;7.020;2023-03-24T01:52:30;13.00;99.90
31639;DHT22;18248;51.522;7.020;2023-03-24T01:55:30;12.90;99.90
31639;DHT22;18248;51.522;7.020;2023-03-24T01:58:31;12.90;99.90
31639;DHT22;18248;51.522;7.020;2023-03-24T02:01:32;13.00;99.90
31639;DHT22;18248;51.522;7.020;2023-03-24T02:04:41;13.00;99.90
31639;DHT22;18248;51.522;7.020;2023-03-24T02:11:16;13.00;99.90
31639;DHT22;18248;51.522;7.020;2023-03-24T02:14:16;13.00;99.90
31639;DHT22;18248;51.522;7.020;2023-03-24T02:35:24;13.00;99.90
31639;DHT22;18248;51.522;7.020;2023-03-24T02:42:10;12.90;99.90
31639;DHT22;18248;51.522;7.020;2023-03-24T03:01:53;13.00;99.90
31639;DHT22;18248;51.522;7.020;2023-03-24T03:05:10;13.10;99.90
31639;DHT22;18248;51.522;7.020;2023-03-24T03:08:13;13.00;99.90
31639;DHT22;18248;51.522;7.020;2023-03-24T03:11:16;13.10;99.90
31639;DHT22;18248;51.522;7.020;2023-03-24T03:14:27;13.10;99.90
31639;DHT22;18248;51.522;7.020;2023-03-24T03:17:34;13.20;99.90
31639;DHT22;18248;51.522;7.020;2023-03-24T03:20:38;13.20;99.90
31639;DHT22;18248;51.522;7.020;2023-03-24T03:23:55;13.30;99.90
31639;DHT22;18248;51.522;7.020;2023-03-24T03:27:00;13.30;99.90
31639;DHT22;18248;51.522;7.020;2023-03-24T03:30:08;13.40;99.90
31639;DHT22;18248;51.522;7.020;2023-03-24T03:33:18;13.40;99.90
31639;DHT22;18248;51.522;7.020;2023-03-24T03:36:36;13.40;99.90
31639;DHT22;18248;51.522;7.020;2023-03-24T03:39:41;13.40;99.90
31639;DHT22;18248;51.522;7.020;2023-03-24T03:42:40;13.50;99.90
31639;DHT22;18248;51.522;7.020;2023-03-24T03:45:39;13.40;99.90
31639;DHT22;18248;51.522;7.020;2023-03-24T03:48:38;13.50;99.90
31639;DHT22;18248;51.522;7.020;2023-03-24T03:51:38;13.50;99.90
31639;DHT22;18248;51.522;7.020;2023-03-24T03:54:37;13.50;99.90
31639;DHT22;18248;51.522;7.020;2023-03-24T03:57:38;13.50;99.90
31639;DHT22;18248;51.522;7.020;2023-03-24T04:00:38;13.60;99.90
31639;DHT22;18248;51.522;7.020;2023-03-24T04:07:07;13.60;99.90
31639;DHT22;18248;51.522;7.020;2023-03-24T04:10:28;13.60;99.90
31639;DHT22;18248;51.522;7.020;2023-03-24T04:20:29;13.70;99.90
31639;DHT22;18248;51.522;7.020;2023-03-24T04:23:41;13.70;99.90
31639;DHT22;18248;51.522;7.020;2023-03-24T04:26:55;13.70;99.90
31639;DHT22;18248;51.522;7.020;2023-03-24T04:33:51;13.70;99.90
31639;DHT22;18248;51.522;7.020;2023-03-24T04:37:05;13.60;99.90
31639;DHT22;18248;51.522;7.020;2023-03-24T04:40:10;13.60;99.90
31639;DHT22;18248;51.522;7.020;2023-03-24T04:43:12;13.60;99.90
31639;DHT22;18248;51.522;7.020;2023-03-24T04:46:15;13.60;99.90
31639;DHT22;18248;51.522;7.020;2023-03-24T04:49:15;13.60;99.90
31639;DHT22;18248;51.522;7.020;2023-03-24T04:52:13;13.60;99.90
31639;DHT22;18248;51.522;7.020;2023-03-24T04:55:53;13.60;99.90
31639;DHT22;18248;51.522;7.020;2023-03-24T04:58:53;13.60;99.90
31639;DHT22;18248;51.522;7.020;2023-03-24T05:01:52;13.60;99.90
31639;DHT22;18248;51.522;7.020;2023-03-24T05:04:50;13.60;99.90
31639;DHT22;18248;51.522;7.020;2023-03-24T05:07:50;13.60;99.90
31639;DHT22;18248;51.522;7.020;2023-03-24T05:10:49;13.60;99.90
31639;DHT22;18248;51.522;7.020;2023-03-24T05:13:48;13.60;99.90
31639;DHT22;18248;51.522;7.020;2023-03-24T05:16:47;13.60;99.90
31639;DHT22;18248;51.522;7.020;2023-03-24T05:19:45;13.60;99.90
31639;DHT22;18248;51.522;7.020;2023-03-24T05:22:45;13.60;99.90
31639;DHT22;18248;51.522;7.020;2023-03-24T05:25:45;13.50;99.90
31639;DHT22;18248;51.522;7.020;2023-03-24T05:28:44;13.50;99.90
31639;DHT22;18248;51.522;7.020;2023-03-24T05:31:42;13.50;99.90
31639;DHT22;18248;51.522;7.020;2023-03-24T05:34:42;13.40;99.90
31639;DHT22;18248;51.522;7.020;2023-03-24T05:37:40;13.40;99.90
31639;DHT22;18248;51.522;7.020;2023-03-24T05:40:39;13.30;99.90
31639;DHT22;18248;51.522;7.020;2023-03-24T05:43:38;13.20;99.90
31639;DHT22;18248;51.522;7.020;2023-03-24T05:46:37;13.10;99.90
31639;DHT22;18248;51.522;7.020;2023-03-24T05:49:37;13.00;99.90
31639;DHT22;18248;51.522;7.020;2023-03-24T05:52:35;12.90;99.90
31639;DHT22;18248;51.522;7.020;2023-03-24T05:55:34;12.90;99.90
31639;DHT22;18248;51.522;7.020;2023-03-24T05:58:33;12.80;99.90
31639;DHT22;18248;51.522;7.020;2023-03-24T06:01:32;12.70;99.90
31639;DHT22;18248;51.522;7.020;2023-03-24T06:04:31;12.60;99.90
31639;DHT22;18248;51.522;7.020;2023-03-24T06:07:29;12.50;99.90
31639;DHT22;18248;51.522;7.020;2023-03-24T06:10:28;12.50;99.90
31639;DHT22;18248;51.522;7.020;2023-03-24T06:13:29;12.40;99.90
31639;DHT22;18248;51.522;7.020;2023-03-24T06:16:29;12.30;99.90
31639;DHT22;18248;51.522;7.020;2023-03-24T06:19:31;12.30;99.90
31639;DHT22;18248;51.522;7.020;2023-03-24T06:22:33;12.20;99.90
31639;DHT22;18248;51.522;7.020;2023-03-24T06:25:34;12.20;99.90
31639;DHT22;18248;51.522;7.020;2023-03-24T06:28:33;12.10;99.90
31639;DHT22;18248;51.522;7.020;2023-03-24T06:31:31;12.10;99.90
31639;DHT22;18248;51.522;7.020;2023-03-24T06:34:31;12.00;99.90
31639;DHT22;18248;51.522;7.020;2023-03-24T06:37:30;12.00;99.90
31639;DHT22;18248;51.522;7.020;2023-03-24T06:40:29;12.00;99.90
31639;DHT22;18248;51.522;7.020;2023-03-24T06:43:28;11.90;99.90
31639;DHT22;18248;51.522;7.020;2023-03-24T06:46:27;11.90;99.90
31639;DHT22;18248;51.522;7.020;2023-03-24T06:49:25;12.00;99.90
31639;DHT22;18248;51.522;7.020;2023-03-24T06:52:24;12.00;99.90
31639;DHT22;18248;51.522;7.020;2023-03-24T06:55:25;12.00;99.90
31639;DHT22;18248;51.522;7.020;2023-03-24T06:58:24;12.00;99.90
31639;DHT22;18248;51.522;7.020;2023-03-24T07:01:23;12.00;99.90
31639;DHT22;18248;51.522;7.020;2023-03-24T07:04:23;12.10;99.90
31639;DHT22;18248;51.522;7.020;2023-03-24T07:07:22;12.10;99.90
31639;DHT22;18248;51.522;7.020;2023-03-24T07:10:21;12.10;99.90
31639;DHT22;18248;51.522;7.020;2023-03-24T07:13:20;12.10;99.90
31639;DHT22;18248;51.522;7.020;2023-03-24T07:16:18;12.10;99.90
31639;DHT22;18248;51.522;7.020;2023-03-24T07:19:17;12.10;99.90
31639;DHT22;18248;51.522;7.020;2023-03-24T07:22:16;12.10;99.90
31639;DHT22;18248;51.522;7.020;2023-03-24T07:25:14;12.10;99.90
31639;DHT22;18248;51.522;7.020;2023-03-24T07:28:17;12.20;99.90
31639;DHT22;18248;51.522;7.020;2023-03-24T07:31:15;12.20;99.90
31639;DHT22;18248;51.522;7.020;2023-03-24T07:34:14;12.20;99.90
31639;DHT22;18248;51.522;7.020;2023-03-24T07:37:13;12.30;99.90
31639;DHT22;18248;51.522;7.020;2023-03-24T07:40:12;12.30;99.90
31639;DHT22;18248;51.522;7.020;2023-03-24T07:43:10;12.40;99.90
31639;DHT22;18248;51.522;7.020;2023-03-24T07:46:09;12.40;99.90
31639;DHT22;18248;51.522;7.020;2023-03-24T07:49:07;12.40;99.90
31639;DHT22;18248;51.522;7.020;2023-03-24T07:52:06;12.40;99.90
31639;DHT22;18248;51.522;7.020;2023-03-24T07:55:07;12.50;99.90
31639;DHT22;18248;51.522;7.020;2023-03-24T07:58:09;12.50;99.90
31639;DHT22;18248;51.522;7.020;2023-03-24T08:01:08;12.50;99.90
31639;DHT22;18248;51.522;7.020;2023-03-24T08:04:12;12.60;99.90
31639;DHT22;18248;51.522;7.020;2023-03-24T08:07:11;12.60;99.90
31639;DHT22;18248;51.522;7.020;2023-03-24T08:10:15;12.70;99.90
31639;DHT22;18248;51.522;7.020;2023-03-24T08:13:15;12.70;99.90
31639;DHT22;18248;51.522;7.020;2023-03-24T08:16:13;12.80;99.90
31639;DHT22;18248;51.522;7.020;2023-03-24T08:19:13;12.90;99.90
31639;DHT22;18248;51.522;7.020;2023-03-24T08:22:11;13.00;99.90
31639;DHT22;18248;51.522;7.020;2023-03-24T08:25:11;13.10;99.90
31639;DHT22;18248;51.522;7.020;2023-03-24T08:28:10;13.30;99.90
31639;DHT22;18248;51.522;7.020;2023-03-24T08:31:10;13.40;99.90
31639;DHT22;18248;51.522;7.020;2023-03-24T08:34:09;13.40;99.90
31639;DHT22;18248;51.522;7.020;2023-03-24T08:37:08;13.50;99.90
31639;DHT22;18248;51.522;7.020;2023-03-24T08:40:14;13.50;99.90
31639;DHT22;18248;51.522;7.020;2023-03-24T08:43:15;13.50;99.90
31639;DHT22;18248;51.522;7.020;2023-03-24T08:46:14;13.40;99.90
31639;DHT22;18248;51.522;7.020;2023-03-24T08:49:13;13.40;99.90
31639;DHT22;18248;51.522;7.020;2023-03-24T08:52:12;13.50;99.90
31639;DHT22;18248;51.522;7.020;2023-03-24T08:55:11;13.50;99.90
31639;DHT22;18248;51.522;7.020;2023-03-24T08:58:18;13.40;99.90
31639;DHT22;18248;51.522;7.020;2023-03-24T09:01:20;13.50;99.90
31639;DHT22;18248;51.522;7.020;2023-03-24T09:04:19;13.60;99.90
31639;DHT22;18248;51.522;7.020;2023-03-24T09:07:20;13.60;99.90
31639;DHT22;18248;51.522;7.020;2023-03-24T09:10:20;13.60;99.90
31639;DHT22;18248;51.522;7.020;2023-03-24T09:13:20;13.70;99.90
31639;DHT22;18248;51.522;7.020;2023-03-24T09:16:18;13.80;99.90
31639;DHT22;18248;51.522;7.020;2023-03-24T09:19:19;14.00;99.90
31639;DHT22;18248;51.522;7.020;2023-03-24T09:22:17;14.20;99.90
31639;DHT22;18248;51.522;7.020;2023-03-24T09:25:18;14.30;99.90
31639;DHT22;18248;51.522;7.020;2023-03-24T09:28:18;14.40;99.90
31639;DHT22;18248;51.522;7.020;2023-03-24T09:31:16;14.30;99.90
31639;DHT22;18248;51.522;7.020;2023-03-24T09:34:15;14.30;99.90
31639;DHT22;18248;51.522;7.020;2023-03-24T09:37:13;14.30;99.90
31639;DHT22;18248;51.522;7.020;2023-03-24T09:40:26;14.40;99.90
31639;DHT22;18248;51.522;7.020;2023-03-24T09:43:36;14.30;99.90
31639;DHT22;18248;51.522;7.020;2023-03-24T09:46:42;14.40;99.90
31639;DHT22;18248;51.522;7.020;2023-03-24T09:49:43;14.40;99.90
31639;DHT22;18248;51.522;7.020;2023-03-24T09:52:47;14.30;99.90
31639;DHT22;18248;51.522;7.020;2023-03-24T09:55:47;14.40;99.90
31639;DHT22;18248;51.522;7.020;2023-03-24T09:58:52;14.60;99.90
31639;DHT22;18248;51.522;7.020;2023-03-24T10:01:52;14.60;99.90
31639;DHT22;18248;51.522;7.020;2023-03-24T10:04:50;14.70;99.90
31639;DHT22;18248;51.522;7.020;2023-03-24T10:07:59;14.70;99.90
31639;DHT22;18248;51.522;7.020;2023-03-24T10:11:33;14.80;99.90
31639;DHT22;18248;51.522;7.020;2023-03-24T10:21:25;15.50;99.90
31639;DHT22;18248;51.522;7.020;2023-03-24T10:24:44;15.80;99.90
31639;DHT22;18248;51.522;7.020;2023-03-24T10:27:50;15.80;99.90
31639;DHT22;18248;51.522;7.020;2023-03-24T10:30:52;15.90;99.90
31639;DHT22;18248;51.522;7.020;2023-03-24T10:33:51;15.90;99.90
31639;DHT22;18248;51.522;7.020;2023-03-24T10:36:50;16.10;99.90
31639;DHT22;18248;51.522;7.020;2023-03-24T10:39:50;16.10;99.90
31639;DHT22;18248;51.522;7.020;2023-03-24T10:42:49;16.20;99.90
31639;DHT22;18248;51.522;7.020;2023-03-24T10:45:51;16.10;99.90
31639;DHT22;18248;51.522;7.020;2023-03-24T10:48:52;16.00;99.90
31639;DHT22;18248;51.522;7.020;2023-03-24T10:51:53;15.90;99.90
31639;DHT22;18248;51.522;7.020;2023-03-24T10:55:01;15.80;99.90
31639;DHT22;18248;51.522;7.020;2023-03-24T10:58:00;16.00;99.90
31639;DHT22;18248;51.522;7.020;2023-03-24T11:00:59;16.40;99.90
31639;DHT22;18248;51.522;7.020;2023-03-24T11:04:04;16.60;99.90
31639;DHT22;18248;51.522;7.020;2023-03-24T11:07:15;16.40;99.90
31639;DHT22;18248;51.522;7.020;2023-03-24T11:10:16;16.20;99.90
31639;DHT22;18248;51.522;7.020;2023-03-24T11:13:18;16.00;99.90
31639;DHT22;18248;51.522;7.020;2023-03-24T11:16:17;15.90;99.90
31639;DHT22;18248;51.522;7.020;2023-03-24T11:19:21;15.70;99.90
31639;DHT22;18248;51.522;7.020;2023-03-24T11:22:19;15.80;99.90
31639;DHT22;18248;51.522;7.020;2023-03-24T11:25:18;16.00;99.90
31639;DHT22;18248;51.522;7.020;2023-03-24T11:28:21;16.00;99.90
31639;DHT22;18248;51.522;7.020;2023-03-24T11:31:29;16.10;99.90
31639;DHT22;18248;51.522;7.020;2023-03-24T11:34:35;16.30;99.90
31639;DHT22;18248;51.522;7.020;2023-03-24T11:37:39;16.50;99.90
31639;DHT22;18248;51.522;7.020;2023-03-24T11:40:51;16.70;99.90
31639;DHT22;18248;51.522;7.020;2023-03-24T11:44:15;16.70;99.90
31639;DHT22;18248;51.522;7.020;2023-03-24T11:47:35;16.90;99.90
31639;DHT22;18248;51.522;7.020;2023-03-24T11:50:37;16.80;99.90
31639;DHT22;18248;51.522;7.020;2023-03-24T11:53:48;16.90;99.90
31639;DHT22;18248;51.522;7.020;2023-03-24T11:56:52;16.80;99.90
31639;DHT22;18248;51.522;7.020;2023-03-24T12:00:05;16.70;99.90
31639;DHT22;18248;51.522;7.020;2023-03-24T12:03:31;16.60;99.90
31639;DHT22;18248;51.522;7.020;2023-03-24T12:06:48;16.50;99.90
31639;DHT22;18248;51.522;7.020;2023-03-24T12:10:46;16.60;99.90
31639;DHT22;18248;51.522;7.020;2023-03-24T12:13:45;16.80;99.90
31639;DHT22;18248;51.522;7.020;2023-03-24T12:17:04;16.70;99.90
31639;DHT22;18248;51.522;7.020;2023-03-24T12:20:15;16.70;99.90
31639;DHT22;18248;51.522;7.020;2023-03-24T12:23:52;16.70;99.90
31639;DHT22;18248;51.522;7.020;2023-03-24T12:26:58;16.90;99.90
31639;DHT22;18248;51.522;7.020;2023-03-24T12:30:19;16.80;99.90
31639;DHT22;18248;51.522;7.020;2023-03-24T12:40:34;16.80;99.90
31639;DHT22;18248;51.522;7.020;2023-03-24T12:49:52;17.20;99.90
31639;DHT22;18248;51.522;7.020;2023-03-24T12:53:23;17.20;99.90
31639;DHT22;18248;51.522;7.020;2023-03-24T12:56:34;17.10;99.90
31639;DHT22;18248;51.522;7.020;2023-03-24T12:59:40;17.30;99.90
31639;DHT22;18248;51.522;7.020;2023-03-24T13:02:55;17.40;99.90
31639;DHT22;18248;51.522;7.020;2023-03-24T13:05:58;17.40;99.90
31639;DHT22;18248;51.522;7.020;2023-03-24T13:09:14;17.20;99.90
31639;DHT22;18248;51.522;7.020;2023-03-24T13:15:55;16.60;99.90
31639;DHT22;18248;51.522;7.020;2023-03-24T13:18:56;16.60;99.90
31639;DHT22;18248;51.522;7.020;2023-03-24T13:21:57;16.70;99.90
31639;DHT22;18248;51.522;7.020;2023-03-24T13:24:57;16.70;99.90
31639;DHT22;18248;51.522;7.020;2023-03-24T13:27:59;16.70;99.90
31639;DHT22;18248;51.522;7.020;2023-03-24T13:31:02;16.70;99.90
31639;DHT22;18248;51.522;7.020;2023-03-24T13:34:03;16.70;99.90
31639;DHT22;18248;51.522;7.020;2023-03-24T13:37:09;16.50;99.90
31639;DHT22;18248;51.522;7.020;2023-03-24T13:40:24;16.50;99.90
31639;DHT22;18248;51.522;7.020;2023-03-24T13:43:28;16.30;99.90
31639;DHT22;18248;51.522;7.020;2023-03-24T13:46:28;16.20;99.90
31639;DHT22;18248;51.522;7.020;2023-03-24T13:49:26;16.10;99.90
31639;DHT22;18248;51.522;7.020;2023-03-24T13:52:38;15.80;99.90
31639;DHT22;18248;51.522;7.020;2023-03-24T13:55:47;15.60;99.90
31639;DHT22;18248;51.522;7.020;2023-03-24T14:02:15;15.80;99.90
31639;DHT22;18248;51.522;7.020;2023-03-24T14:08:52;15.70;99.90
31639;DHT22;18248;51.522;7.020;2023-03-24T14:15:17;15.90;99.90
31639;DHT22;18248;51.522;7.020;2023-03-24T14:21:28;16.10;99.90
31639;DHT22;18248;51.522;7.020;2023-03-24T14:24:28;16.20;99.90
31639;DHT22;18248;51.522;7.020;2023-03-24T14:27:37;16.00;99.90
31639;DHT22;18248;51.522;7.020;2023-03-24T14:31:00;15.50;99.90
31639;DHT22;18248;51.522;7.020;2023-03-24T14:34:11;14.90;99.90
31639;DHT22;18248;51.522;7.020;2023-03-24T14:37:13;14.60;99.90
31639;DHT22;18248;51.522;7.020;2023-03-24T14:40:26;14.60;99.90
31639;DHT22;18248;51.522;7.020;2023-03-24T14:46:45;14.90;99.90
31639;DHT22;18248;51.522;7.020;2023-03-24T14:49:51;14.90;99.90
31639;DHT22;18248;51.522;7.020;2023-03-24T14:52:53;14.80;99.90
31639;DHT22;18248;51.522;7.020;2023-03-24T14:55:52;14.70;99.90
31639;DHT22;18248;51.522;7.020;2023-03-24T14:58:54;14.60;99.90
31639;DHT22;18248;51.522;7.020;2023-03-24T15:02:02;14.50;99.90
31639;DHT22;18248;51.522;7.020;2023-03-24T15:08:22;14.60;99.90
31639;DHT22;18248;51.522;7.020;2023-03-24T15:11:38;14.70;99.90
31639;DHT22;18248;51.522;7.020;2023-03-24T15:14:36;14.70;99.90
31639;DHT22;18248;51.522;7.020;2023-03-24T15:17:35;14.60;99.90
31639;DHT22;18248;51.522;7.020;2023-03-24T15:20:36;14.60;99.90
31639;DHT22;18248;51.522;7.020;2023-03-24T15:23:35;14.60;99.90
31639;DHT22;18248;51.522;7.020;2023-03-24T15:26:33;14.50;99.90
31639;DHT22;18248;51.522;7.020;2023-03-24T15:29:42;14.30;99.90
31639;DHT22;18248;51.522;7.020;2023-03-24T15:32:41;14.30;99.90
31639;DHT22;18248;51.522;7.020;2023-03-24T15:35:44;14.40;99.90
31639;DHT22;18248;51.522;7.020;2023-03-24T15:38:48;14.40;99.90
31639;DHT22;18248;51.522;7.020;2023-03-24T15:41:49;14.50;99.90
31639;DHT22;18248;51.522;7.020;2023-03-24T15:44:51;14.40;99.90
31639;DHT22;18248;51.522;7.020;2023-03-24T15:47:52;14.50;99.90
31639;DHT22;18248;51.522;7.020;2023-03-24T15:50:58;14.50;99.90
31639;DHT22;18248;51.522;7.020;2023-03-24T15:53:58;14.40;99.90
31639;DHT22;18248;51.522;7.020;2023-03-24T15:56:59;14.40;99.90
31639;DHT22;18248;51.522;7.020;2023-03-24T16:03:00;14.30;99.90
31639;DHT22;18248;51.522;7.020;2023-03-24T16:05:59;14.00;99.90
31639;DHT22;18248;51.522;7.020;2023-03-24T16:09:11;13.80;99.90
31639;DHT22;18248;51.522;7.020;2023-03-24T16:12:10;13.60;99.90
31639;DHT22;18248;51.522;7.020;2023-03-24T16:15:11;13.50;99.90
31639;DHT22;18248;51.522;7.020;2023-03-24T16:18:16;13.40;99.90
31639;DHT22;18248;51.522;7.020;2023-03-24T16:21:20;13.40;99.90
31639;DHT22;18248;51.522;7.020;2023-03-24T16:24:19;13.40;99.90
31639;DHT22;18248;51.522;7.020;2023-03-24T16:27:18;13.30;99.90
31639;DHT22;18248;51.522;7.020;2023-03-24T16:30:22;13.30;99.90
31639;DHT22;18248;51.522;7.020;2023-03-24T16:33:23;13.30;99.90
31639;DHT22;18248;51.522;7.020;2023-03-24T16:36:23;13.40;99.90
31639;DHT22;18248;51.522;7.020;2023-03-24T16:39:30;13.40;99.90
31639;DHT22;18248;51.522;7.020;2023-03-24T16:42:28;13.40;99.90
31639;DHT22;18248;51.522;7.020;2023-03-24T16:45:31;13.30;99.90
31639;DHT22;18248;51.522;7.020;2023-03-24T16:48:29;13.30;99.90
31639;DHT22;18248;51.522;7.020;2023-03-24T16:51:31;13.30;99.90
31639;DHT22;18248;51.522;7.020;2023-03-24T16:54:29;13.30;99.90
31639;DHT22;18248;51.522;7.020;2023-03-24T16:57:28;13.30;99.90
31639;DHT22;18248;51.522;7.020;2023-03-24T17:00:28;13.30;99.90
31639;DHT22;18248;51.522;7.020;2023-03-24T17:03:29;13.20;99.90
31639;DHT22;18248;51.522;7.020;2023-03-24T17:06:30;13.10;99.90
31639;DHT22;18248;51.522;7.020;2023-03-24T17:09:29;13.00;99.90
31639;DHT22;18248;51.522;7.020;2023-03-24T17:12:29;12.90;99.90
31639;DHT22;18248;51.522;7.020;2023-03-24T17:15:29;12.80;99.90
31639;DHT22;18248;51.522;7.020;2023-03-24T17:18:28;12.70;99.90
31639;DHT22;18248;51.522;7.020;2023-03-24T17:21:26;12.60;99.90
31639;DHT22;18248;51.522;7.020;2023-03-24T17:24:25;12.50;99.90
31639;DHT22;18248;51.522;7.020;2023-03-24T17:27:24;12.40;99.90
31639;DHT22;18248;51.522;7.020;2023-03-24T17:30:24;12.30;99.90
31639;DHT22;18248;51.522;7.020;2023-03-24T17:33:23;12.20;99.90
31639;DHT22;18248;51.522;7.020;2023-03-24T17:36:21;12.20;99.90
31639;DHT22;18248;51.522;7.020;2023-03-24T17:39:20;12.20;99.90
31639;DHT22;18248;51.522;7.020;2023-03-24T17:42:19;12.10;99.90
31639;DHT22;18248;51.522;7.020;2023-03-24T17:45:18;12.10;99.90
31639;DHT22;18248;51.522;7.020;2023-03-24T17:48:16;12.00;99.90
31639;DHT22;18248;51.522;7.020;2023-03-24T17:51:15;12.00;99.90
31639;DHT22;18248;51.522;7.020;2023-03-24T17:54:14;11.90;99.90
31639;DHT22;18248;51.522;7.020;2023-03-24T17:57:15;11.90;99.90
31639;DHT22;18248;51.522;7.020;2023-03-24T18:00:14;11.90;99.90
31639;DHT22;18248;51.522;7.020;2023-03-24T18:03:14;11.90;99.90
31639;DHT22;18248;51.522;7.020;2023-03-24T18:06:13;11.80;99.90
31639;DHT22;18248;51.522;7.020;2023-03-24T18:09:13;11.80;99.90
31639;DHT22;18248;51.522;7.020;2023-03-24T18:12:12;11.80;99.90
31639;DHT22;18248;51.522;7.020;2023-03-24T18:15:11;11.70;99.90
31639;DHT22;18248;51.522;7.020;2023-03-24T18:18:11;11.70;99.90
31639;DHT22;18248;51.522;7.020;2023-03-24T18:21:10;11.70;99.90
31639;DHT22;18248;51.522;7.020;2023-03-24T18:24:09;11.70;99.90
31639;DHT22;18248;51.522;7.020;2023-03-24T18:27:10;11.60;99.90
31639;DHT22;18248;51.522;7.020;2023-03-24T18:30:10;11.60;99.90
31639;DHT22;18248;51.522;7.020;2023-03-24T18:33:11;11.60;99.90
31639;DHT22;18248;51.522;7.020;2023-03-24T18:36:14;11.60;99.90
31639;DHT22;18248;51.522;7.020;2023-03-24T18:39:23;11.60;99.90
31639;DHT22;18248;51.522;7.020;2023-03-24T18:42:22;11.60;99.90
31639;DHT22;18248;51.522;7.020;2023-03-24T18:45:20;11.50;99.90
31639;DHT22;18248;51.522;7.020;2023-03-24T18:48:19;11.50;99.90
31639;DHT22;18248;51.522;7.020;2023-03-24T18:51:19;11.60;99.90
31639;DHT22;18248;51.522;7.020;2023-03-24T18:54:18;11.60;99.90
31639;DHT22;18248;51.522;7.020;2023-03-24T18:57:16;11.60;99.90
31639;DHT22;18248;51.522;7.020;2023-03-24T19:00:15;11.60;99.90
31639;DHT22;18248;51.522;7.020;2023-03-24T19:03:14;11.60;99.90
31639;DHT22;18248;51.522;7.020;2023-03-24T19:06:14;11.60;99.90
31639;DHT22;18248;51.522;7.020;2023-03-24T19:09:13;11.60;99.90
31639;DHT22;18248;51.522;7.020;2023-03-24T19:12:13;11.60;99.90
31639;DHT22;18248;51.522;7.020;2023-03-24T19:15:14;11.60;99.90
31639;DHT22;18248;51.522;7.020;2023-03-24T19:18:13;11.60;99.90
31639;DHT22;18248;51.522;7.020;2023-03-24T19:21:12;11.60;99.90
31639;DHT22;18248;51.522;7.020;2023-03-24T19:24:12;11.60;99.90
31639;DHT22;18248;51.522;7.020;2023-03-24T19:27:11;11.60;99.90
31639;DHT22;18248;51.522;7.020;2023-03-24T19:30:10;11.60;99.90
31639;DHT22;18248;51.522;7.020;2023-03-24T19:33:08;11.60;99.90
31639;DHT22;18248;51.522;7.020;2023-03-24T19:36:09;11.60;99.90
31639;DHT22;18248;51.522;7.020;2023-03-24T19:39:07;11.60;99.90
31639;DHT22;18248;51.522;7.020;2023-03-24T19:42:06;11.60;99.90
31639;DHT22;18248;51.522;7.020;2023-03-24T19:45:07;11.60;99.90
31639;DHT22;18248;51.522;7.020;2023-03-24T19:48:05;11.70;99.90
31639;DHT22;18248;51.522;7.020;2023-03-24T19:51:04;11.70;99.90
31639;DHT22;18248;51.522;7.020;2023-03-24T19:54:03;11.70;99.90
31639;DHT22;18248;51.522;7.020;2023-03-24T19:57:01;11.70;99.90
31639;DHT22;18248;51.522;7.020;2023-03-24T20:00:01;11.80;99.90
31639;DHT22;18248;51.522;7.020;2023-03-24T20:02:59;11.70;99.90
31639;DHT22;18248;51.522;7.020;2023-03-24T20:06:04;11.80;99.90
31639;DHT22;18248;51.522;7.020;2023-03-24T20:09:05;11.80;99.90
31639;DHT22;18248;51.522;7.020;2023-03-24T20:12:04;11.70;99.90
31639;DHT22;18248;51.522;7.020;2023-03-24T20:15:03;11.70;99.90
31639;DHT22;18248;51.522;7.020;2023-03-24T20:18:02;11.70;99.90
31639;DHT22;18248;51.522;7.020;2023-03-24T20:21:02;11.70;99.90
31639;DHT22;18248;51.522;7.020;2023-03-24T20:24:01;11.60;99.90
31639;DHT22;18248;51.522;7.020;2023-03-24T20:27:01;11.60;99.90
31639;DHT22;18248;51.522;7.020;2023-03-24T20:29:59;11.60;99.90
31639;DHT22;18248;51.522;7.020;2023-03-24T20:32:58;11.50;99.90
31639;DHT22;18248;51.522;7.020;2023-03-24T20:35:57;11.50;99.90
31639;DHT22;18248;51.522;7.020;2023-03-24T20:38:56;11.50;99.90
31639;DHT22;18248;51.522;7.020;2023-03-24T20:41:56;11.50;99.90
31639;DHT22;18248;51.522;7.020;2023-03-24T20:44:55;11.50;99.90
31639;DHT22;18248;51.522;7.020;2023-03-24T20:47:54;11.50;99.90
31639;DHT22;18248;51.522;7.020;2023-03-24T20:50:53;11.50;99.90
31639;DHT22;18248;51.522;7.020;2023-03-24T20:53:52;11.50;99.90
31639;DHT22;18248;51.522;7.020;2023-03-24T20:56:50;11.40;99.90